Time;durP1;ratioP1;P1;durP2;ratioP2;P2;SDS_P1;SDS_P2;PMS_P1;PMS_P2;Temp;Humidity;BMP_temperature;BMP_pressure;BME280_temperature;BME280_humidity;BME280_pressure;Samples;Min_cycle;Max_cycle;Signal;HPM_P1;HPM_P2
2021/04/15 00:01:11;;;;;;;25.43;17.73;;;;;;;3.71;77.00;94220.33;1846866;77;22077;-54
2021/04/15 00:03:40;;;;;;;28.50;18.05;;;;;;;3.73;76.88;94219.31;1845791;77;21118;-54
2021/04/15 00:06:13;;;;;;;29.50;19.20;;;;;;;3.68;76.82;94216.33;1846728;77;21123;-55
2021/04/15 00:08:43;;;;;;;22.10;17.25;;;;;;;3.67;77.07;94214.19;1846677;77;21047;-54
2021/04/15 00:11:18;;;;;;;21.65;15.50;;;;;;;3.67;76.88;94210.11;1846716;77;21039;-54
2021/04/15 00:13:52;;;;;;;22.50;16.65;;;;;;;3.67;77.06;94208.00;1846869;77;21265;-54
2021/04/15 00:16:20;;;;;;;47.35;23.67;;;;;;;3.64;76.85;94210.95;1846666;77;21083;-53
2021/04/15 00:18:48;;;;;;;28.05;18.73;;;;;;;3.62;76.90;94207.87;1846822;77;21100;-54
2021/04/15 00:21:18;;;;;;;45.15;24.77;;;;;;;3.60;76.81;94206.17;1846662;77;21146;-54
2021/04/15 00:23:46;;;;;;;47.95;26.25;;;;;;;3.57;77.22;94207.01;1846746;77;21146;-54
2021/04/15 00:26:18;;;;;;;67.12;38.13;;;;;;;3.64;77.19;94206.87;1846760;77;21154;-54
2021/04/15 00:28:50;;;;;;;76.47;41.58;;;;;;;3.66;77.10;94209.94;1846626;77;21130;-54
2021/04/15 00:31:18;;;;;;;126.33;69.50;;;;;;;3.69;77.00;94206.38;1846725;77;21099;-53
2021/04/15 00:33:47;;;;;;;84.00;47.33;;;;;;;3.63;76.78;94206.70;1846690;77;21154;-53
2021/04/15 00:36:15;;;;;;;68.40;37.33;;;;;;;3.57;76.87;94207.01;1846645;77;21072;-53
2021/04/15 00:38:44;;;;;;;29.02;18.55;;;;;;;3.55;76.85;94203.16;1846660;77;21067;-54
2021/04/15 00:41:14;;;;;;;27.65;17.45;;;;;;;3.52;76.89;94211.54;1846664;77;21079;-54
2021/04/15 00:43:44;;;;;;;29.98;18.92;;;;;;;3.49;77.09;94204.22;1846682;77;21060;-53
2021/04/15 00:46:32;;;;;;;24.67;17.85;;;;;;;3.51;77.53;94209.25;1846784;77;21033;-54
2021/04/15 00:49:02;;;;;;;19.65;15.28;;;;;;;3.59;77.30;94208.72;1846759;77;21031;-55
2021/04/15 00:51:34;;;;;;;22.42;15.13;;;;;;;3.61;77.31;94206.34;1819045;77;21258;-54
2021/04/15 00:54:09;;;;;;;22.35;16.77;;;;;;;3.64;77.14;94206.09;1846680;77;21047;-57
2021/04/15 00:56:37;;;;;;;21.80;16.40;;;;;;;3.63;77.19;94210.77;1850634;77;21615;-53
2021/04/15 00:59:05;;;;;;;16.27;13.32;;;;;;;3.70;77.08;94207.91;1860038;77;21138;-54
2021/04/15 01:01:35;;;;;;;15.68;13.15;;;;;;;3.78;76.97;94207.20;1860196;77;21479;-54
2021/04/15 01:04:04;;;;;;;15.65;13.55;;;;;;;3.80;76.81;94209.69;1860133;77;21513;-54
2021/04/15 01:06:32;;;;;;;15.75;12.50;;;;;;;3.82;76.80;94207.31;1860184;77;21493;-53
2021/04/15 01:09:03;;;;;;;22.00;15.60;;;;;;;3.86;76.70;94212.70;1860125;77;21039;-54
2021/04/15 01:12:10;;;;;;;31.20;21.93;;;;;;;3.85;76.44;94203.75;1858998;77;21602;-53
2021/04/15 01:15:02;;;;;;;32.93;21.40;;;;;;;3.85;76.43;94207.84;1860161;77;21587;-54
2021/04/15 01:17:51;;;;;;;24.50;15.65;;;;;;;3.84;76.49;94206.30;1854882;77;21188;-57
2021/04/15 01:20:46;;;;;;;20.52;15.00;;;;;;;3.93;76.55;94202.45;1860087;77;21168;-53
2021/04/15 01:23:21;;;;;;;16.40;13.35;;;;;;;4.06;76.21;94203.34;1860187;77;21075;-54
2021/04/15 01:26:15;;;;;;;15.43;12.58;;;;;;;4.14;75.91;94203.98;1860060;77;21118;-54
2021/04/15 01:29:23;;;;;;;15.78;12.60;;;;;;;4.15;75.70;94200.06;1860059;77;21042;-54
2021/04/15 01:32:08;;;;;;;16.17;11.03;;;;;;;4.14;75.54;94200.67;1860243;77;22086;-53
2021/04/15 01:34:45;;;;;;;23.00;13.72;;;;;;;4.15;75.28;94196.77;1859720;77;21161;-57
2021/04/15 01:37:50;;;;;;;21.02;13.60;;;;;;;4.10;75.18;94199.98;1860077;77;21083;-54
2021/04/15 01:40:50;;;;;;;36.35;19.45;;;;;;;4.10;75.16;94196.48;1860100;77;21098;-54
2021/04/15 01:43:54;;;;;;;30.60;16.87;;;;;;;4.14;75.18;94197.95;1860184;77;21071;-55
2021/04/15 01:46:24;;;;;;;37.83;16.97;;;;;;;4.25;74.92;94197.12;1860432;77;21196;-54
2021/04/15 01:48:54;;;;;;;40.52;20.62;;;;;;;4.23;74.72;94196.03;1860023;77;21073;-54
2021/04/15 01:51:35;;;;;;;30.90;16.20;;;;;;;4.19;74.57;94189.29;1860129;77;21070;-54
2021/04/15 01:54:12;;;;;;;22.17;14.98;;;;;;;4.16;74.64;94192.07;1860455;77;21051;-55
2021/04/15 01:56:50;;;;;;;15.98;11.70;;;;;;;4.18;74.86;94190.48;1857822;77;21214;-56
2021/04/15 01:59:43;;;;;;;19.00;12.10;;;;;;;4.28;74.58;94195.53;1846684;77;22233;-56
2021/04/15 02:02:21;;;;;;;14.93;11.53;;;;;;;4.30;74.23;94191.21;1846619;77;21091;-50
2021/04/15 02:05:01;;;;;;;12.73;10.45;;;;;;;4.32;74.06;94197.00;1846687;77;21106;-50
2021/04/15 02:07:29;;;;;;;11.05;9.85;;;;;;;4.28;74.03;94188.73;1846653;77;21107;-51
2021/04/15 02:09:59;;;;;;;13.72;10.45;;;;;;;4.27;74.20;94192.03;1819267;77;21055;-52
2021/04/15 02:12:29;;;;;;;13.50;11.48;;;;;;;4.29;74.12;94195.70;1846685;77;21422;-52
2021/04/15 02:15:07;;;;;;;14.58;11.43;;;;;;;4.28;74.16;94192.20;1846572;77;21174;-53
2021/04/15 02:17:37;;;;;;;12.98;10.58;;;;;;;4.36;74.21;94194.97;1846709;77;21058;-51
2021/04/15 02:20:13;;;;;;;12.45;11.08;;;;;;;4.46;73.81;94201.37;1846716;77;21150;-52
2021/04/15 02:23:22;;;;;;;20.32;15.55;;;;;;;4.48;73.55;94194.91;1846586;77;21071;-53
2021/04/15 02:25:56;;;;;;;47.38;28.75;;;;;;;4.47;73.44;94195.52;1846692;77;21338;-55
2021/04/15 02:28:41;;;;;;;30.85;18.37;;;;;;;4.38;73.48;94192.59;1846576;77;21056;-56
2021/04/15 02:31:16;;;;;;;15.78;13.08;;;;;;;4.32;73.75;94193.50;1846773;77;21598;-53
2021/04/15 02:34:08;;;;;;;17.70;13.25;;;;;;;4.34;73.89;94189.17;1846681;77;21060;-53
2021/04/15 02:36:45;;;;;;;24.18;16.35;;;;;;;4.34;73.68;94193.84;1846596;77;21551;-54
2021/04/15 02:39:26;;;;;;;24.25;16.70;;;;;;;4.28;73.58;94195.53;1846584;77;21351;-52
2021/04/15 02:41:54;;;;;;;23.38;16.87;;;;;;;4.24;73.76;94194.84;1846632;77;21072;-53
2021/04/15 02:44:29;;;;;;;37.48;26.65;;;;;;;4.25;73.85;94191.69;1846202;77;21059;-54
2021/04/15 02:47:06;;;;;;;58.50;36.05;;;;;;;4.36;73.85;94194.97;1846702;77;21159;-54
2021/04/15 02:49:34;;;;;;;49.45;31.23;;;;;;;4.49;73.83;94198.59;1846857;77;21055;-53
2021/04/15 02:52:10;;;;;;;26.15;20.50;;;;;;;4.65;73.34;94195.13;1846675;77;21193;-54
2021/04/15 02:54:43;;;;;;;18.90;15.43;;;;;;;4.69;73.19;94197.95;1844710;77;21178;-53
2021/04/15 02:57:18;;;;;;;17.67;13.55;;;;;;;4.71;72.70;94201.60;1849181;77;21067;-54
2021/04/15 02:59:59;;;;;;;16.15;13.50;;;;;;;4.64;72.54;94203.88;1857888;77;21048;-54
2021/04/15 03:02:32;;;;;;;16.55;14.07;;;;;;;4.59;72.52;94204.39;1858188;77;21174;-54
2021/04/15 03:05:14;;;;;;;17.50;13.68;;;;;;;4.56;72.56;94205.23;1858173;77;21222;-54
2021/04/15 03:07:42;;;;;;;12.30;11.00;;;;;;;4.62;72.73;94203.53;1858088;77;21086;-54
2021/04/15 03:10:15;;;;;;;14.23;11.85;;;;;;;4.67;72.35;94205.00;1830297;77;21078;-54
2021/04/15 03:13:17;;;;;;;12.80;10.43;;;;;;;4.65;72.37;94206.02;1858158;77;21050;-54
2021/04/15 03:15:52;;;;;;;10.43;9.28;;;;;;;4.56;72.46;94202.51;1858140;77;21043;-54
2021/04/15 03:18:50;;;;;;;10.28;9.20;;;;;;;4.50;72.57;94208.29;1858147;77;21174;-54
2021/04/15 03:21:31;;;;;;;11.73;9.75;;;;;;;4.45;72.46;94211.48;1858057;77;21150;-54
2021/04/15 03:24:11;;;;;;;13.60;11.83;;;;;;;4.43;72.72;94209.78;1873612;75;22686;-54
2021/04/15 03:26:57;;;;;;;20.10;16.77;;;;;;;4.44;72.73;94215.41;1838732;78;21128;-54
2021/04/15 03:29:31;;;;;;;43.42;29.25;;;;;;;4.49;72.70;94212.20;1841692;78;22190;-55
2021/04/15 03:32:22;;;;;;;17.45;13.95;;;;;;;4.50;72.64;94217.82;1841630;78;21152;-52
2021/04/15 03:35:01;;;;;;;12.75;10.78;;;;;;;4.50;72.91;94219.19;1841565;78;20983;-54
2021/04/15 03:37:41;;;;;;;10.82;9.73;;;;;;;4.58;72.68;94217.83;1821326;78;21085;-54
2021/04/15 03:40:11;;;;;;;14.28;11.57;;;;;;;4.57;72.39;94213.58;1808534;79;21156;-53
2021/04/15 03:42:55;;;;;;;11.88;10.45;;;;;;;4.53;72.75;94216.98;1808488;79;21188;-54
2021/04/15 03:45:53;;;;;;;13.05;11.03;;;;;;;4.56;72.43;94216.13;1808412;79;21125;-55
2021/04/15 03:48:25;;;;;;;13.95;12.30;;;;;;;4.53;72.27;94222.42;1798859;79;21140;-55
2021/04/15 03:51:02;;;;;;;;;;;;;;;4.57;72.12;94221.75;1811267;79;21101;-55
2021/04/15 03:53:40;;;;;;;18.85;15.72;;;;;;;4.61;72.21;94224.41;1808572;79;20244;-54
2021/04/15 03:56:13;;;;;;;20.12;16.45;;;;;;;4.63;72.21;94228.22;1808487;79;21193;-54
2021/04/15 03:58:45;;;;;;;25.60;21.15;;;;;;;4.69;72.19;94225.78;1782821;79;21140;-53
2021/04/15 04:01:21;;;;;;;21.37;16.50;;;;;;;4.76;71.98;94225.03;1808503;79;21073;-55
2021/04/15 04:04:15;;;;;;;20.05;15.23;;;;;;;4.80;71.64;94238.59;1808487;78;21546;-55
2021/04/15 04:06:43;;;;;;;17.27;13.78;;;;;;;4.70;71.44;94234.13;1808526;79;21097;-56
2021/04/15 04:09:23;;;;;;;15.28;12.78;;;;;;;4.59;71.48;94235.71;1808489;79;21185;-54
2021/04/15 04:11:52;;;;;;;13.03;11.73;;;;;;;4.56;71.92;94235.77;1808425;79;21136;-55
2021/04/15 04:14:33;;;;;;;13.93;12.10;;;;;;;4.65;71.89;94238.13;1808574;79;21538;-55
2021/04/15 04:17:08;;;;;;;14.15;12.65;;;;;;;4.82;71.68;94242.41;1808487;79;21169;-53
2021/04/15 04:19:41;;;;;;;14.85;13.35;;;;;;;4.91;71.47;94244.55;1808550;79;21058;-54
2021/04/15 04:22:16;;;;;;;14.68;13.13;;;;;;;4.93;71.22;94249.77;1808410;79;21224;-54
2021/04/15 04:25:03;;;;;;;17.00;14.25;;;;;;;4.99;71.33;94246.70;1779029;79;21081;-54
2021/04/15 04:27:48;;;;;;;15.18;13.58;;;;;;;5.12;71.01;94247.58;1808498;79;21189;-54
2021/04/15 04:30:26;;;;;;;18.62;14.90;;;;;;;5.22;70.69;94251.25;1808497;79;21069;-54
2021/04/15 04:33:00;;;;;;;60.08;31.23;;;;;;;5.30;70.39;94250.67;1808573;79;21478;-55
2021/04/15 04:35:32;;;;;;;313.07;109.87;;;;;;;5.32;70.05;94257.83;1807853;79;21194;-55
2021/04/15 04:38:06;;;;;;;174.40;69.95;;;;;;;5.31;70.14;94257.66;1807828;78;21073;-55
2021/04/15 04:40:47;;;;;;;219.00;88.33;;;;;;;5.37;69.98;94265.48;1807919;79;21051;-55
2021/04/15 04:43:34;;;;;;;49.40;26.63;;;;;;;5.31;69.89;94267.20;1808215;79;21493;-53
2021/04/15 04:46:13;;;;;;;33.90;20.68;;;;;;;5.20;69.77;94257.15;1807884;79;21156;-55
2021/04/15 04:48:57;;;;;;;28.03;23.20;;;;;;;5.12;69.94;94251.67;1873933;76;27777;-54
2021/04/15 04:51:39;;;;;;;20.23;17.37;;;;;;;5.24;69.83;94263.28;1860540;77;21657;-54
2021/04/15 04:54:07;;;;;;;37.42;24.12;;;;;;;5.37;69.64;94266.85;1824258;77;21283;-55
2021/04/15 04:56:46;;;;;;;27.60;20.30;;;;;;;5.40;69.38;94267.39;1860706;77;21101;-54
2021/04/15 04:59:18;;;;;;;21.12;17.57;;;;;;;5.43;69.47;94255.63;1828114;77;21124;-55
2021/04/15 05:01:46;;;;;;;20.45;17.80;;;;;;;5.42;69.29;94255.45;1861244;77;20950;-55
2021/04/15 05:04:16;;;;;;;24.98;21.62;;;;;;;5.52;69.28;94255.78;1860906;77;21151;-56
2021/04/15 05:06:44;;;;;;;21.60;18.10;;;;;;;5.58;69.03;94252.73;1802643;77;21329;-55
2021/04/15 05:09:34;;;;;;;23.05;20.55;;;;;;;5.59;68.96;94253.66;1860807;77;20934;-55
2021/04/15 05:12:11;;;;;;;25.10;20.90;;;;;;;5.53;69.18;94258.09;1860888;77;21080;-54
2021/04/15 05:14:40;;;;;;;37.30;28.23;;;;;;;5.58;69.09;94258.19;1828686;77;21241;-54
2021/04/15 05:17:36;;;;;;;54.70;39.38;;;;;;;5.55;69.23;94256.29;1860823;77;21053;-55
2021/04/15 05:20:16;;;;;;;127.95;74.50;;;;;;;5.55;69.32;94257.65;1850234;76;21082;-54
2021/04/15 05:23:00;;;;;;;85.90;49.70;;;;;;;5.52;69.10;94253.05;1851375;76;21154;-57
2021/04/15 05:25:46;;;;;;;50.52;35.00;;;;;;;5.49;68.78;94258.78;1849380;76;21638;-57
2021/04/15 05:28:15;;;;;;;34.05;27.07;;;;;;;5.41;68.89;94260.74;1834018;76;21210;-56
2021/04/15 05:30:49;;;;;;;28.57;20.68;;;;;;;5.38;69.48;94265.69;1851436;76;21149;-58
2021/04/15 05:33:22;;;;;;;31.48;21.30;;;;;;;5.40;69.41;94259.20;1852016;76;22345;-58
2021/04/15 05:36:03;;;;;;;25.65;20.72;;;;;;;5.37;69.56;94261.39;1844464;76;21639;-56
2021/04/15 05:38:35;;;;;;;34.03;22.52;;;;;;;5.39;69.61;94274.04;1827659;77;21169;-56
2021/04/15 05:41:04;;;;;;;;;;;;;;;5.39;69.68;94265.86;1827740;77;21670;-61
2021/04/15 05:43:37;;;;;;;44.35;31.07;;;;;;;5.44;69.81;94265.34;1831249;77;20245;-53
2021/04/15 05:46:22;;;;;;;48.70;34.13;;;;;;;5.53;69.94;94267.64;1824598;77;21256;-54
2021/04/15 05:49:00;;;;;;;35.68;26.07;;;;;;;5.72;69.65;94266.00;1815307;77;21106;-56
2021/04/15 05:51:35;;;;;;;29.75;21.30;;;;;;;5.83;69.25;94266.55;1797515;77;21224;-54
2021/04/15 05:54:08;;;;;;;29.75;22.50;;;;;;;5.79;68.86;94268.61;1815296;77;21123;-56
2021/04/15 05:56:57;;;;;;;;;;;;;;;5.82;69.01;94272.59;1825644;77;21451;-54
2021/04/15 05:59:45;;;;;;;30.40;24.85;;;;;;;5.87;68.79;94272.09;1843061;77;21142;-57
2021/04/15 06:02:54;;;;;;;44.77;30.02;;;;;;;5.86;68.63;94269.20;1822446;76;21193;-56
2021/04/15 06:05:32;;;;;;;37.08;26.62;;;;;;;5.88;68.61;94264.08;1791092;77;21211;-58
2021/04/15 06:08:03;;;;;;;38.42;26.87;;;;;;;5.94;68.61;94265.69;1828753;77;21162;-54
2021/04/15 06:10:33;;;;;;;32.20;21.75;;;;;;;5.94;68.79;94263.72;1837858;77;21159;-56
2021/04/15 06:13:17;;;;;;;32.33;22.70;;;;;;;5.92;68.89;94259.87;1829926;77;21142;-54
2021/04/15 06:15:55;;;;;;;33.92;24.57;;;;;;;5.85;68.69;94269.61;1813574;77;21210;-60
2021/04/15 06:18:42;;;;;;;32.13;23.77;;;;;;;5.82;68.78;94267.75;1819505;77;21231;-58
2021/04/15 06:21:23;;;;;;;27.40;20.40;;;;;;;5.93;68.63;94270.37;1829283;77;21572;-55
2021/04/15 06:24:01;;;;;;;27.13;19.80;;;;;;;6.03;68.54;94260.38;1769443;77;21221;-54
2021/04/15 06:26:44;;;;;;;23.27;18.67;;;;;;;6.03;68.51;94267.20;1706169;81;21223;-56
2021/04/15 06:29:44;;;;;;;27.48;18.87;;;;;;;5.95;68.72;94259.03;1736469;81;21689;-57
2021/04/15 06:32:17;;;;;;;26.25;18.95;;;;;;;5.90;68.80;94256.80;1737188;81;21177;-57
2021/04/15 06:34:46;;;;;;;23.57;17.80;;;;;;;5.93;68.94;94258.09;1734475;81;21159;-57
2021/04/15 06:37:31;;;;;;;21.95;17.32;;;;;;;6.01;69.13;94258.06;1738660;81;21220;-56
2021/04/15 06:40:11;;;;;;;30.30;22.13;;;;;;;6.10;69.03;94252.77;1723078;81;21201;-56
2021/04/15 06:43:29;;;;;;;38.20;27.02;;;;;;;6.21;68.77;94248.39;1727263;81;21595;-52
2021/04/15 06:46:43;;;;;;;26.68;19.48;;;;;;;6.36;68.61;94255.00;1729207;81;21328;-56
2021/04/15 06:49:47;;;;;;;27.95;19.80;;;;;;;6.56;67.69;94255.61;1729875;81;21824;-53
2021/04/15 06:52:24;;;;;;;24.50;16.97;;;;;;;6.55;66.93;94245.27;1732654;81;21406;-57
2021/04/15 06:55:19;;;;;;;34.55;23.02;;;;;;;6.64;66.74;94248.73;1728220;81;21247;-57
2021/04/15 06:58:18;;;;;;;22.70;16.80;;;;;;;6.62;66.92;94249.77;1742488;81;21593;-56
2021/04/15 07:01:17;;;;;;;19.82;15.30;;;;;;;6.79;67.20;94243.81;1732187;81;21670;-53
2021/04/15 07:04:02;;;;;;;20.60;15.43;;;;;;;7.09;66.50;94246.80;1731525;81;21702;-55
2021/04/15 07:06:47;;;;;;;17.55;12.82;;;;;;;7.40;66.00;94245.66;1738528;81;21188;-59
2021/04/15 07:09:54;;;;;;;19.52;15.23;;;;;;;7.61;65.32;94244.97;1668018;84;21668;-57
2021/04/15 07:12:43;;;;;;;23.02;16.82;;;;;;;7.72;64.89;94244.79;1684528;84;21244;-55
2021/04/15 07:15:50;;;;;;;19.02;13.78;;;;;;;7.93;63.84;94249.59;1712679;82;21233;-61
2021/04/15 07:18:52;;;;;;;20.45;15.03;;;;;;;7.95;63.39;94254.02;1713691;82;21776;-56
2021/04/15 07:22:05;;;;;;;15.50;12.28;;;;;;;7.99;63.05;94255.25;1683776;82;21132;-57
2021/04/15 07:24:59;;;;;;;10.35;9.30;;;;;;;8.03;63.75;94256.67;1709374;82;21185;-56
2021/04/15 07:28:16;;;;;;;17.55;11.73;;;;;;;8.21;62.36;94257.48;1714642;82;21157;-57
2021/04/15 07:31:22;;;;;;;18.65;12.18;;;;;;;8.21;60.60;94257.48;1709103;82;21237;-56
2021/04/15 07:34:24;;;;;;;12.25;9.43;;;;;;;8.05;59.69;94256.99;1718324;82;21241;-54
2021/04/15 07:37:24;;;;;;;11.48;9.40;;;;;;;7.91;59.20;94260.20;1709302;82;21201;-55
2021/04/15 07:40:26;;;;;;;10.13;9.13;;;;;;;7.90;59.72;94264.77;1701140;82;21347;-57
2021/04/15 07:43:30;;;;;;;8.05;7.10;;;;;;;7.95;59.80;94258.12;1656668;85;21236;-58
2021/04/15 07:46:36;;;;;;;8.93;7.92;;;;;;;8.02;60.31;94260.63;1674536;84;21182;-58
2021/04/15 07:49:25;;;;;;;13.65;11.03;;;;;;;8.07;61.03;94265.53;1705106;82;21244;-56
2021/04/15 07:52:24;;;;;;;10.32;8.10;;;;;;;8.25;61.57;94265.73;1706918;82;21146;-56
2021/04/15 07:55:16;;;;;;;8.55;7.62;;;;;;;8.43;60.09;94265.88;1700614;83;21386;-56
2021/04/15 07:58:31;;;;;;;11.48;9.00;;;;;;;8.51;59.51;94272.66;1681470;83;21237;-57
2021/04/15 08:01:40;;;;;;;13.25;8.38;;;;;;;8.52;59.18;94268.70;1658088;84;21660;-63
2021/04/15 08:04:49;;;;;;;13.28;9.80;;;;;;;8.54;59.11;94263.55;1668276;85;21118;-59
2021/04/15 08:08:02;;;;;;;12.10;9.73;;;;;;;8.85;59.85;94263.61;1871562;75;22740;-56
2021/04/15 08:11:15;;;;;;;10.90;8.90;;;;;;;8.97;58.79;94271.76;1833914;76;21505;-58
2021/04/15 08:14:35;;;;;;;12.05;9.83;;;;;;;8.89;57.54;94264.39;1832635;76;21189;-57
2021/04/15 08:17:33;;;;;;;12.98;10.13;;;;;;;8.96;57.39;94266.89;1844433;77;21586;-49
2021/04/15 08:20:31;;;;;;;19.23;10.43;;;;;;;9.11;57.20;94272.61;1845082;77;21153;-54
2021/04/15 08:23:39;;;;;;;15.43;10.32;;;;;;;9.01;57.59;94267.67;1844536;77;21189;-54
2021/04/15 08:27:04;;;;;;;14.60;9.58;;;;;;;9.07;57.92;94267.88;1773115;79;21193;-55
2021/04/15 08:29:49;;;;;;;21.70;13.30;;;;;;;9.27;58.06;94260.80;1773565;80;21246;-54
2021/04/15 08:32:52;;;;;;;14.55;10.98;;;;;;;9.44;57.58;94270.33;1781112;80;21637;-60
2021/04/15 08:35:53;;;;;;;11.03;9.88;;;;;;;9.68;57.84;94269.22;1778823;79;21179;-57
2021/04/15 08:39:13;;;;;;;15.60;9.75;;;;;;;9.75;56.88;94264.80;1756991;79;21173;-55
2021/04/15 08:42:15;;;;;;;15.25;9.75;;;;;;;9.76;56.36;94263.61;1759737;80;21139;-58
2021/04/15 08:44:54;;;;;;;14.33;9.08;;;;;;;9.84;55.88;94271.09;1744760;80;21212;-56
2021/04/15 08:47:49;;;;;;;16.97;10.55;;;;;;;9.94;55.95;94269.91;1753708;80;21214;-50
2021/04/15 08:50:47;;;;;;;17.20;10.93;;;;;;;9.91;55.04;94260.43;1747492;80;21216;-56
2021/04/15 08:53:31;;;;;;;16.37;10.45;;;;;;;9.62;55.26;94269.66;1756386;80;21621;-55
2021/04/15 08:56:07;;;;;;;11.20;10.03;;;;;;;9.46;55.61;94260.28;1760981;80;21117;-57
2021/04/15 08:58:51;;;;;;;11.30;9.88;;;;;;;9.61;56.76;94264.02;1754319;80;21208;-53
2021/04/15 09:01:41;;;;;;;19.30;9.38;;;;;;;9.75;56.08;94258.72;1747325;80;21134;-53
2021/04/15 09:04:19;;;;;;;10.95;8.70;;;;;;;9.81;55.80;94263.01;1746235;80;21173;-57
2021/04/15 09:07:14;;;;;;;13.58;10.38;;;;;;;9.63;55.00;94260.95;1730456;79;21230;-55
2021/04/15 09:10:09;;;;;;;13.40;10.30;;;;;;;9.36;55.63;94259.48;1767999;79;21103;-56
2021/04/15 09:13:09;;;;;;;14.58;9.88;;;;;;;9.23;56.66;94259.42;1734544;81;21150;-58
2021/04/15 09:16:00;;;;;;;25.62;18.60;;;;;;;9.30;58.30;94259.92;1732972;80;21273;-57
2021/04/15 09:18:54;;;;;;;16.80;12.28;;;;;;;9.46;58.13;94256.17;1740908;81;21196;-57
2021/04/15 09:21:51;;;;;;;16.70;13.13;;;;;;;9.51;58.91;94252.83;1735149;81;21236;-58
2021/04/15 09:24:42;;;;;;;13.83;10.53;;;;;;;9.45;59.23;94256.77;1731354;81;21190;-58
2021/04/15 09:27:42;;;;;;;13.93;12.00;;;;;;;9.35;59.16;94253.84;1738739;81;21809;-58
2021/04/15 09:30:23;;;;;;;10.75;9.58;;;;;;;9.35;59.51;94247.56;1739155;81;21185;-55
2021/04/15 09:33:01;;;;;;;10.35;9.25;;;;;;;9.21;58.84;94248.89;1746135;80;21614;-59
2021/04/15 09:35:48;;;;;;;11.35;9.58;;;;;;;9.27;60.11;94257.30;1871907;75;23393;-55
2021/04/15 09:39:02;;;;;;;17.67;9.60;;;;;;;9.26;59.55;94251.03;1820026;77;21142;-59
2021/04/15 09:42:14;;;;;;;10.10;8.95;;;;;;;9.20;60.45;94257.55;1818361;76;21177;-56
2021/04/15 09:44:53;;;;;;;17.77;8.43;;;;;;;9.38;60.72;94256.27;1820454;76;21598;-56
2021/04/15 09:48:00;;;;;;;10.30;8.03;;;;;;;9.63;59.40;94256.09;1763792;79;21222;-56
2021/04/15 09:50:54;;;;;;;8.58;6.58;;;;;;;9.75;58.48;94252.44;1804744;76;21220;-57
2021/04/15 09:54:02;;;;;;;8.85;7.10;;;;;;;9.86;57.64;94254.16;1820073;76;21194;-55
2021/04/15 09:57:07;;;;;;;10.00;8.35;;;;;;;9.87;57.55;94253.72;1837233;76;21579;-57
2021/04/15 10:00:16;;;;;;;9.13;8.23;;;;;;;9.95;57.32;94247.33;1818542;76;21736;-56
2021/04/15 10:02:55;;;;;;;8.38;7.35;;;;;;;10.04;56.30;94246.77;1784890;78;21226;-56
2021/04/15 10:05:40;;;;;;;9.35;7.35;;;;;;;10.37;57.36;94240.08;1790420;78;21193;-58
2021/04/15 10:08:16;;;;;;;8.80;6.70;;;;;;;10.62;57.50;94238.39;1783423;78;21587;-61
2021/04/15 10:11:02;;;;;;;13.15;7.10;;;;;;;10.95;56.54;94239.43;1779507;78;21388;-56
2021/04/15 10:14:12;;;;;;;9.13;7.75;;;;;;;11.15;54.99;94241.70;1817613;76;21620;-57
2021/04/15 10:17:05;;;;;;;11.95;8.95;;;;;;;11.16;54.29;94243.97;1814640;77;21819;-53
2021/04/15 10:20:06;;;;;;;8.45;6.97;;;;;;;11.14;53.96;94239.55;1823369;76;21246;-54
2021/04/15 10:23:10;;;;;;;8.90;7.40;;;;;;;11.05;53.56;94234.08;1838703;76;21149;-54
2021/04/15 10:25:46;;;;;;;13.20;8.05;;;;;;;11.02;53.54;94236.98;1823472;76;21578;-53
2021/04/15 10:28:49;;;;;;;8.48;7.30;;;;;;;10.90;54.00;94242.03;1821904;76;21581;-57
2021/04/15 10:31:56;;;;;;;8.15;6.10;;;;;;;10.64;53.90;94241.44;1820577;76;22204;-54
2021/04/15 10:34:54;;;;;;;7.22;6.05;;;;;;;10.36;54.70;94242.05;1829926;76;21170;-54
2021/04/15 10:38:06;;;;;;;6.97;5.92;;;;;;;10.16;55.61;94242.36;1828824;77;21178;-58
2021/04/15 10:40:44;;;;;;;6.62;5.20;;;;;;;9.92;55.44;94243.50;1820970;76;21190;-55
2021/04/15 10:43:25;;;;;;;6.55;5.33;;;;;;;9.83;56.07;94240.72;1835100;76;21165;-58
2021/04/15 10:46:40;;;;;;;6.30;5.30;;;;;;;9.73;56.03;94228.79;1830629;76;21158;-57
2021/04/15 10:49:29;;;;;;;5.08;4.15;;;;;;;9.67;56.79;94242.97;1822891;77;21605;-57
2021/04/15 10:52:05;;;;;;;5.37;4.33;;;;;;;9.53;56.46;94233.32;1788453;79;21178;-59
2021/04/15 10:54:37;;;;;;;3.75;3.20;;;;;;;9.53;57.28;94247.05;1829301;76;23342;-58
2021/04/15 10:57:27;;;;;;;;;;;;;;;9.42;56.64;94234.96;1829039;76;21088;-60
2021/04/15 10:59:55;;;;;;;6.60;4.15;;;;;;;9.32;56.74;94236.91;1827651;77;20277;-56
2021/04/15 11:02:33;;;;;;;14.10;8.70;;;;;;;9.17;57.20;94242.77;1846026;77;21186;-57
2021/04/15 11:05:27;;;;;;;12.23;8.55;;;;;;;9.07;57.66;94236.32;1818845;76;22283;-57
2021/04/15 11:08:10;;;;;;;6.55;4.97;;;;;;;9.11;58.21;94241.80;1816068;76;21231;-59
2021/04/15 11:10:38;;;;;;;9.63;6.75;;;;;;;9.13;58.25;94240.00;1834592;76;22193;-56
2021/04/15 11:13:25;;;;;;;7.15;4.83;;;;;;;9.05;58.69;94241.49;1831647;76;21171;-57
2021/04/15 11:15:58;;;;;;;7.28;4.33;;;;;;;9.04;58.83;94244.08;1822498;76;21173;-60
2021/04/15 11:18:34;;;;;;;9.75;5.90;;;;;;;9.08;58.96;94241.34;1824396;76;21159;-56
2021/04/15 11:21:26;;;;;;;17.60;6.30;;;;;;;9.09;58.97;94246.23;1820726;77;22070;-58
2021/04/15 11:23:56;;;;;;;14.98;6.75;;;;;;;9.05;58.76;94244.98;1833987;76;21149;-57
2021/04/15 11:26:31;;;;;;;5.22;4.08;;;;;;;8.89;59.37;94243.82;1827304;76;21150;-58
2021/04/15 11:29:01;;;;;;;12.18;6.55;;;;;;;8.76;59.60;94240.25;1823866;76;21174;-60
2021/04/15 11:31:37;;;;;;;10.30;5.28;;;;;;;8.76;59.83;94240.25;1762960;77;21157;-57
2021/04/15 11:34:15;;;;;;;4.22;3.70;;;;;;;8.81;59.93;94244.53;1833059;76;21318;-59
2021/04/15 11:36:57;;;;;;;11.10;5.20;;;;;;;8.81;59.67;94247.27;1803334;77;21591;-56
2021/04/15 11:39:30;;;;;;;8.80;4.17;;;;;;;8.77;59.41;94243.90;1828804;77;21164;-57
2021/04/15 11:42:11;;;;;;;7.53;3.80;;;;;;;8.76;58.99;94236.14;1821628;77;21188;-57
2021/04/15 11:44:54;;;;;;;5.00;4.05;;;;;;;8.78;58.92;94235.83;1751576;80;21505;-63
2021/04/15 11:47:28;;;;;;;12.70;6.17;;;;;;;8.87;58.59;94240.02;1768303;80;21308;-57
2021/04/15 11:50:22;;;;;;;5.15;4.45;;;;;;;8.96;58.68;94244.17;1768721;80;21567;-58
2021/04/15 11:52:53;;;;;;;5.50;4.67;;;;;;;8.91;58.44;94242.02;1756852;80;21165;-59
2021/04/15 11:55:32;;;;;;;4.53;4.05;;;;;;;8.91;57.80;94237.90;1764745;80;21425;-57
2021/04/15 11:58:03;;;;;;;5.87;4.30;;;;;;;8.97;57.92;94240.21;1764819;80;21219;-60
2021/04/15 12:00:41;;;;;;;9.70;5.28;;;;;;;9.04;57.63;94230.36;1763730;80;21193;-59
2021/04/15 12:03:16;;;;;;;13.18;4.62;;;;;;;9.12;56.97;94241.22;1769084;80;21298;-58
2021/04/15 12:05:45;;;;;;;5.87;3.70;;;;;;;9.02;57.56;94236.28;1779863;80;21214;-57
2021/04/15 12:08:23;;;;;;;3.40;2.67;;;;;;;8.89;57.40;94238.95;1766413;80;21598;-60
2021/04/15 12:11:14;;;;;;;3.25;2.92;;;;;;;8.88;56.97;94247.63;1772119;80;21155;-58
2021/04/15 12:14:00;;;;;;;12.85;5.22;;;;;;;8.89;56.50;94242.45;1758742;80;21223;-59
2021/04/15 12:16:41;;;;;;;6.83;2.70;;;;;;;8.94;57.08;94248.75;1760368;80;21250;-57
2021/04/15 12:19:50;;;;;;;3.05;2.85;;;;;;;8.93;57.14;94247.81;1766077;80;21166;-61
2021/04/15 12:22:37;;;;;;;5.72;3.50;;;;;;;8.77;58.04;94250.76;1764893;80;21218;-54
2021/04/15 12:25:31;;;;;;;3.87;3.40;;;;;;;8.71;58.36;94244.92;1757912;80;21587;-59
2021/04/15 12:28:33;;;;;;;6.95;3.75;;;;;;;8.74;57.11;94247.54;1763245;80;21230;-57
2021/04/15 12:31:25;;;;;;;9.58;3.83;;;;;;;8.63;58.25;94250.52;1765141;80;21179;-59
2021/04/15 12:34:19;;;;;;;11.18;5.50;;;;;;;8.55;58.78;94241.77;1754613;80;21250;-57
2021/04/15 12:37:03;;;;;;;6.78;4.53;;;;;;;8.49;59.31;94250.42;1716922;79;21396;-58
2021/04/15 12:39:51;;;;;;;10.08;3.83;;;;;;;8.47;59.54;94247.95;1757773;80;21150;-59
2021/04/15 12:42:24;;;;;;;13.62;6.62;;;;;;;8.37;59.84;94245.75;1762067;80;21572;-59
2021/04/15 12:44:54;;;;;;;6.97;5.45;;;;;;;8.32;60.86;94242.20;1763982;80;21180;-59
2021/04/15 12:47:23;;;;;;;4.55;4.15;;;;;;;8.26;61.26;94243.97;1764925;80;21206;-58
2021/04/15 12:49:51;;;;;;;3.42;3.17;;;;;;;8.22;61.89;94256.28;1770047;80;21575;-57